<?xml version='1.0' encoding='UTF-8'?><gpx version="1.1" creator="JPX - https://github.com/jenetics/jpx" xmlns="http://www.topografix.com/GPX/1/1"><trk><trkseg><trkpt lat="43.08888974170921" lon="10.64246715581376"><ele>152.0</ele><time>2026-04-26T16:48:55.003Z</time></trkpt><trkpt lat="43.08895036476674" lon="10.64243172164156"><ele>152.0</ele><time>2026-04-26T16:49:03.002Z</time></trkpt><trkpt lat="43.08900804248292" lon="10.642390239511252"><ele>152.0</ele><time>2026-04-26T16:49:09.001Z</time></trkpt><trkpt lat="43.08909080926927" lon="10.64236497826749"><ele>152.0</ele><time>2026-04-26T16:49:16.001Z</time></trkpt><trkpt lat="43.089131399844526" lon="10.642289761218162"><ele>152.0</ele><time>2026-04-26T16:49:25Z</time></trkpt><trkpt lat="43.08919128455593" lon="10.642250085062287"><ele>152.0</ele><time>2026-04-26T16:49:34Z</time></trkpt><trkpt lat="43.08927780785214" lon="10.64222933497421"><ele>152.0</ele><time>2026-04-26T16:49:46Z</time></trkpt><trkpt lat="43.08934410711799" lon="10.64218773068646"><ele>152.42857142857142</ele><time>2026-04-26T16:49:52Z</time></trkpt><trkpt lat="43.08939848404843" lon="10.642139852597836"><ele>152.85714285714286</ele><time>2026-04-26T16:50:07Z</time></trkpt><trkpt lat="43.0894686269053" lon="10.642160596527003"><ele>153.28571428571428</ele><time>2026-04-26T16:51:00Z</time></trkpt><trkpt lat="43.08951761655915" lon="10.642103342129566"><ele>153.71428571428572</ele><time>2026-04-26T16:51:15.001Z</time></trkpt><trkpt lat="43.08953443920566" lon="10.642014358470473"><ele>154.14285714285714</ele><time>2026-04-26T16:51:25.001Z</time></trkpt><trkpt lat="43.089562039677375" lon="10.641922423410842"><ele>154.57142857142858</ele><time>2026-04-26T16:51:40.001Z</time></trkpt><trkpt lat="43.08961250682399" lon="10.641865844168658"><ele>155.0</ele><time>2026-04-26T16:51:47.001Z</time></trkpt><trkpt lat="43.089635002715326" lon="10.641777078665209"><ele>156.71428571428572</ele><time>2026-04-26T16:51:58.001Z</time></trkpt><trkpt lat="43.08966153929964" lon="10.641692025653567"><ele>158.42857142857142</ele><time>2026-04-26T16:52:05.001Z</time></trkpt><trkpt lat="43.08965840405082" lon="10.641601134875103"><ele>160.14285714285714</ele><time>2026-04-26T16:52:13.001Z</time></trkpt><trkpt lat="43.089646422810574" lon="10.641511794392562"><ele>161.85714285714286</ele><time>2026-04-26T16:52:46Z</time></trkpt><trkpt lat="43.089684953492274" lon="10.641434266607575"><ele>163.57142857142858</ele><time>2026-04-26T16:52:55Z</time></trkpt><trkpt lat="43.0897166822531" lon="10.641346708663962"><ele>165.28571428571428</ele><time>2026-04-26T16:53:21Z</time></trkpt><trkpt lat="43.08968047244377" lon="10.641258908002717"><ele>167.0</ele><time>2026-04-26T16:53:39Z</time></trkpt><trkpt lat="43.089711299995734" lon="10.641181129778584"><ele>167.0</ele><time>2026-04-26T16:53:55.001Z</time></trkpt><trkpt lat="43.08965794042692" lon="10.641227180463163"><ele>167.0</ele><time>2026-04-26T16:54:25.001Z</time></trkpt><trkpt lat="43.08962141898502" lon="10.641155818961236"><ele>167.0</ele><time>2026-04-26T16:54:39.001Z</time></trkpt><trkpt lat="43.089580875911125" lon="10.64107951811051"><ele>167.0</ele><time>2026-04-26T16:54:53Z</time></trkpt><trkpt lat="43.08951428397483" lon="10.641057913701331"><ele>167.0</ele><time>2026-04-26T16:55:11Z</time></trkpt><trkpt lat="43.08954520336299" lon="10.640972044001911"><ele>167.0</ele><time>2026-04-26T16:55:32Z</time></trkpt><trkpt lat="43.08952892205078" lon="10.640880076996378"><ele>167.0</ele><time>2026-04-26T16:55:47Z</time></trkpt><trkpt lat="43.089601644172504" lon="10.640840331099204"><ele>169.33333333333331</ele><time>2026-04-26T16:56:01.001Z</time></trkpt><trkpt lat="43.08957850029237" lon="10.640753218183297"><ele>171.66666666666666</ele><time>2026-04-26T16:56:11.001Z</time></trkpt><trkpt lat="43.089515613120014" lon="10.640721441877846"><ele>174.0</ele><time>2026-04-26T16:56:34.001Z</time></trkpt><trkpt lat="43.08952771633555" lon="10.640630144611759"><ele>176.33333333333334</ele><time>2026-04-26T16:58:00.001Z</time></trkpt><trkpt lat="43.08950090032666" lon="10.640548979717892"><ele>178.66666666666669</ele><time>2026-04-26T16:58:14.001Z</time></trkpt><trkpt lat="43.08956779011527" lon="10.640674809177336"><ele>181.0</ele><time>2026-04-26T16:59:53Z</time></trkpt><trkpt lat="43.089632117413636" lon="10.64072390662922"><ele>181.0</ele><time>2026-04-26T17:00:01.001Z</time></trkpt><trkpt lat="43.08969453881638" lon="10.64077143017384"><ele>181.0</ele><time>2026-04-26T17:00:11.001Z</time></trkpt><trkpt lat="43.0897403372778" lon="10.640840152226911"><ele>181.0</ele><time>2026-04-26T17:00:19.001Z</time></trkpt><trkpt lat="43.08978411162777" lon="10.640911932289308"><ele>181.0</ele><time>2026-04-26T17:00:33.001Z</time></trkpt><trkpt lat="43.08981506086657" lon="10.640994043518324"><ele>181.0</ele><time>2026-04-26T17:00:40.001Z</time></trkpt><trkpt lat="43.089835739799774" lon="10.641085867671187"><ele>181.0</ele><time>2026-04-26T17:00:47.001Z</time></trkpt><trkpt lat="43.089851084470276" lon="10.641181867508587"><ele>181.0</ele><time>2026-04-26T17:00:56.001Z</time></trkpt><trkpt lat="43.08986846602619" lon="10.641267936280247"><ele>179.28571428571428</ele><time>2026-04-26T17:01:03.001Z</time></trkpt><trkpt lat="43.08989167997467" lon="10.641352154406222"><ele>177.57142857142856</ele><time>2026-04-26T17:01:12.001Z</time></trkpt><trkpt lat="43.08995677187043" lon="10.64131682723232"><ele>175.85714285714286</ele><time>2026-04-26T17:01:31.001Z</time></trkpt><trkpt lat="43.089983607906376" lon="10.64123770204254"><ele>174.14285714285714</ele><time>2026-04-26T17:01:38.002Z</time></trkpt><trkpt lat="43.08999252943541" lon="10.641139978191086"><ele>172.42857142857142</ele><time>2026-04-26T17:01:46.002Z</time></trkpt><trkpt lat="43.09003082347647" lon="10.64106543059187"><ele>170.71428571428572</ele><time>2026-04-26T17:01:54.002Z</time></trkpt><trkpt lat="43.09007622182115" lon="10.641003861773216"><ele>169.0</ele><time>2026-04-26T17:02:01.002Z</time></trkpt><trkpt lat="43.09013082597073" lon="10.64094625334637"><ele>169.0</ele><time>2026-04-26T17:02:10.002Z</time></trkpt><trkpt lat="43.09018241243436" lon="10.640890582474022"><ele>169.0</ele><time>2026-04-26T17:02:18.002Z</time></trkpt><trkpt lat="43.090226407909654" lon="10.640823740169164"><ele>169.0</ele><time>2026-04-26T17:02:27.002Z</time></trkpt><trkpt lat="43.09029989019928" lon="10.640799486269758"><ele>169.0</ele><time>2026-04-26T17:02:54.002Z</time></trkpt><trkpt lat="43.09036274671783" lon="10.640757533330474"><ele>169.0</ele><time>2026-04-26T17:03:40.003Z</time></trkpt><trkpt lat="43.090398015207676" lon="10.640679714751885"><ele>169.0</ele><time>2026-04-26T17:03:51.003Z</time></trkpt><trkpt lat="43.09042130898208" lon="10.640596863881056"><ele>169.0</ele><time>2026-04-26T17:03:59.003Z</time></trkpt><trkpt lat="43.09045175928637" lon="10.640516492557287"><ele>169.0</ele><time>2026-04-26T17:04:08.003Z</time></trkpt><trkpt lat="43.090500105096865" lon="10.640443502592664"><ele>169.0</ele><time>2026-04-26T17:05:10.004Z</time></trkpt><trkpt lat="43.09053800736083" lon="10.640371196703155"><ele>169.0</ele><time>2026-04-26T17:05:20.004Z</time></trkpt><trkpt lat="43.09058701495195" lon="10.640305191219273"><ele>169.0</ele><time>2026-04-26T17:05:37.004Z</time></trkpt><trkpt lat="43.090618113321" lon="10.640227065463481"><ele>169.0</ele><time>2026-04-26T17:05:46.004Z</time></trkpt><trkpt lat="43.09066125962226" lon="10.640155330950048"><ele>169.0</ele><time>2026-04-26T17:05:55.004Z</time></trkpt><trkpt lat="43.090642124976284" lon="10.640071367139065"><ele>169.0</ele><time>2026-04-26T17:07:19.005Z</time></trkpt><trkpt lat="43.09061059641729" lon="10.63999048043696"><ele>171.28571428571428</ele><time>2026-04-26T17:07:30.005Z</time></trkpt><trkpt lat="43.090620499376776" lon="10.640080060540136"><ele>173.57142857142856</ele><time>2026-04-26T17:07:59.005Z</time></trkpt><trkpt lat="43.09061302641353" lon="10.640168468148719"><ele>175.85714285714283</ele><time>2026-04-26T17:08:09.006Z</time></trkpt><trkpt lat="43.09054593897278" lon="10.640175067643478"><ele>178.14285714285714</ele><time>2026-04-26T17:08:21.006Z</time></trkpt><trkpt lat="43.09047535843068" lon="10.640176409164608"><ele>180.42857142857142</ele><time>2026-04-26T17:08:31.006Z</time></trkpt><trkpt lat="43.090409339328986" lon="10.640183657180833"><ele>182.7142857142857</ele><time>2026-04-26T17:08:39.006Z</time></trkpt><trkpt lat="43.090345469490124" lon="10.64023024012765"><ele>185.0</ele><time>2026-04-26T17:08:50.006Z</time></trkpt><trkpt lat="43.09028465168416" lon="10.640197598632442"><ele>184.99999999999997</ele><time>2026-04-26T17:09:20.006Z</time></trkpt><trkpt lat="43.09022010758929" lon="10.640198031187897"><ele>185.0</ele><time>2026-04-26T17:09:29.006Z</time></trkpt><trkpt lat="43.09016253239906" lon="10.64023601359104"><ele>185.0</ele><time>2026-04-26T17:09:42.007Z</time></trkpt><trkpt lat="43.09010098730728" lon="10.640196754770907"><ele>185.0</ele><time>2026-04-26T17:09:52.007Z</time></trkpt><trkpt lat="43.09004207055444" lon="10.640153153771449"><ele>185.0</ele><time>2026-04-26T17:10:01.007Z</time></trkpt><trkpt lat="43.08996667206206" lon="10.640067742030627"><ele>184.99999999999997</ele><time>2026-04-26T17:10:20.007Z</time></trkpt><trkpt lat="43.08991536543782" lon="10.64001252058918"><ele>185.0</ele><time>2026-04-26T17:10:27.007Z</time></trkpt><trkpt lat="43.08985398305403" lon="10.639969969691917"><ele>185.99999999999997</ele><time>2026-04-26T17:10:36.007Z</time></trkpt><trkpt lat="43.08980495378759" lon="10.639911349217845"><ele>187.0</ele><time>2026-04-26T17:10:42.007Z</time></trkpt><trkpt lat="43.08975063215137" lon="10.639862176982914"><ele>188.0</ele><time>2026-04-26T17:10:49.007Z</time></trkpt><trkpt lat="43.08969414704286" lon="10.639815780120628"><ele>189.0</ele><time>2026-04-26T17:10:55.007Z</time></trkpt><trkpt lat="43.08962951759892" lon="10.63977262271728"><ele>190.0</ele><time>2026-04-26T17:11:04.007Z</time></trkpt><trkpt lat="43.08956980803635" lon="10.63974422265791"><ele>190.99999999999997</ele><time>2026-04-26T17:11:10.007Z</time></trkpt><trkpt lat="43.08950426488206" lon="10.639715811610028"><ele>192.0</ele><time>2026-04-26T17:11:16.007Z</time></trkpt><trkpt lat="43.08946480811291" lon="10.639624045074731"><ele>191.99999999999997</ele><time>2026-04-26T17:11:30.008Z</time></trkpt><trkpt lat="43.08943005565108" lon="10.639545785806718"><ele>192.0</ele><time>2026-04-26T17:11:42.008Z</time></trkpt><trkpt lat="43.08937466865063" lon="10.639504596240673"><ele>192.0</ele><time>2026-04-26T17:11:45.008Z</time></trkpt><trkpt lat="43.089303070716" lon="10.639482202458298"><ele>192.0</ele><time>2026-04-26T17:11:50.008Z</time></trkpt><trkpt lat="43.08926012971194" lon="10.639552119388686"><ele>192.0</ele><time>2026-04-26T17:12:02.008Z</time></trkpt><trkpt lat="43.089196985671535" lon="10.63957007308159"><ele>191.99999999999997</ele><time>2026-04-26T17:12:14.008Z</time></trkpt><trkpt lat="43.089132687454615" lon="10.639548256757255"><ele>192.0</ele><time>2026-04-26T17:12:24.008Z</time></trkpt><trkpt lat="43.08908826980581" lon="10.63948561817126"><ele>196.28571428571428</ele><time>2026-04-26T17:12:34.008Z</time></trkpt><trkpt lat="43.08907804512918" lon="10.63939744699431"><ele>200.57142857142856</ele><time>2026-04-26T17:12:44.008Z</time></trkpt><trkpt lat="43.08908544411672" lon="10.639309683987712"><ele>204.85714285714283</ele><time>2026-04-26T17:12:50.008Z</time></trkpt><trkpt lat="43.089077034620516" lon="10.639210680969752"><ele>209.14285714285714</ele><time>2026-04-26T17:13:01.009Z</time></trkpt><trkpt lat="43.08904575273698" lon="10.639132969902896"><ele>213.42857142857144</ele><time>2026-04-26T17:13:11.009Z</time></trkpt><trkpt lat="43.08908589202053" lon="10.639054250002342"><ele>217.7142857142857</ele><time>2026-04-26T17:13:17.009Z</time></trkpt><trkpt lat="43.089063857078344" lon="10.638964024038126"><ele>222.0</ele><time>2026-04-26T17:13:24.009Z</time></trkpt><trkpt lat="43.08907340245147" lon="10.638864879222584"><ele>222.0</ele><time>2026-04-26T17:13:35.009Z</time></trkpt><trkpt lat="43.08907277107866" lon="10.638769914439852"><ele>222.0</ele><time>2026-04-26T17:13:44.009Z</time></trkpt><trkpt lat="43.08904166520018" lon="10.638692987473132"><ele>222.0</ele><time>2026-04-26T17:13:51.009Z</time></trkpt><trkpt lat="43.08900115510456" lon="10.638579504643879"><ele>222.0</ele><time>2026-04-26T17:14:06.009Z</time></trkpt><trkpt lat="43.08898875364834" lon="10.638494653169445"><ele>222.0</ele><time>2026-04-26T17:14:17.009Z</time></trkpt><trkpt lat="43.08893156364565" lon="10.638547262924709"><ele>222.0</ele><time>2026-04-26T17:14:40.01Z</time></trkpt><trkpt lat="43.08889117149802" lon="10.638629342899756"><ele>222.0</ele><time>2026-04-26T17:14:48.01Z</time></trkpt><trkpt lat="43.08887626352597" lon="10.6387223698141"><ele>222.0</ele><time>2026-04-26T17:15:00.01Z</time></trkpt><trkpt lat="43.08884127163058" lon="10.638804540340617"><ele>222.0</ele><time>2026-04-26T17:15:12.01Z</time></trkpt><trkpt lat="43.08882192240924" lon="10.63888832204637"><ele>222.0</ele><time>2026-04-26T17:15:18.01Z</time></trkpt><trkpt lat="43.088789670786966" lon="10.638968001351495"><ele>222.0</ele><time>2026-04-26T17:15:25.01Z</time></trkpt><trkpt lat="43.088764551545985" lon="10.639049091490437"><ele>222.0</ele><time>2026-04-26T17:15:36.01Z</time></trkpt><trkpt lat="43.088743569437526" lon="10.639162603704632"><ele>222.0</ele><time>2026-04-26T17:15:48.01Z</time></trkpt><trkpt lat="43.08874608934865" lon="10.639249029247365"><ele>222.0</ele><time>2026-04-26T17:15:56.01Z</time></trkpt><trkpt lat="43.0887120493057" lon="10.639321802214438"><ele>222.0</ele><time>2026-04-26T17:16:02.01Z</time></trkpt><trkpt lat="43.0886986692577" lon="10.639413074172168"><ele>222.0</ele><time>2026-04-26T17:16:26.011Z</time></trkpt><trkpt lat="43.08868142640767" lon="10.639497269455575"><ele>222.0</ele><time>2026-04-26T17:16:34.011Z</time></trkpt><trkpt lat="43.08864053364413" lon="10.639571414879965"><ele>222.0</ele><time>2026-04-26T17:16:41.011Z</time></trkpt><trkpt lat="43.08860638688568" lon="10.639659113412513"><ele>222.0</ele><time>2026-04-26T17:16:48.011Z</time></trkpt><trkpt lat="43.08856913650367" lon="10.639734197827408"><ele>222.0</ele><time>2026-04-26T17:16:54.011Z</time></trkpt><trkpt lat="43.088508264064764" lon="10.639783845764288"><ele>222.0</ele><time>2026-04-26T17:17:02.011Z</time></trkpt><trkpt lat="43.08844608177643" lon="10.63980356545963"><ele>222.33333333333334</ele><time>2026-04-26T17:17:09.011Z</time></trkpt><trkpt lat="43.08838659565127" lon="10.639763812263729"><ele>222.66666666666669</ele><time>2026-04-26T17:17:16.011Z</time></trkpt><trkpt lat="43.088329867203086" lon="10.639718898300647"><ele>223.0</ele><time>2026-04-26T17:17:24.011Z</time></trkpt><trkpt lat="43.08828138115378" lon="10.639661679988832"><ele>223.33333333333334</ele><time>2026-04-26T17:17:32.011Z</time></trkpt><trkpt lat="43.088215449829676" lon="10.6396068211641"><ele>223.66666666666669</ele><time>2026-04-26T17:17:41.011Z</time></trkpt><trkpt lat="43.08816835746788" lon="10.639545647784617"><ele>224.0</ele><time>2026-04-26T17:17:47.011Z</time></trkpt><trkpt lat="43.08808098014077" lon="10.63943366528349"><ele>224.0</ele><time>2026-04-26T17:18:10.012Z</time></trkpt><trkpt lat="43.08801899780794" lon="10.639405934018884"><ele>224.0</ele><time>2026-04-26T17:18:19.012Z</time></trkpt><trkpt lat="43.08795467231732" lon="10.639393113086877"><ele>224.0</ele><time>2026-04-26T17:18:27.012Z</time></trkpt><trkpt lat="43.087885035518106" lon="10.639394664347964"><ele>224.0</ele><time>2026-04-26T17:18:34.012Z</time></trkpt><trkpt lat="43.08782461469141" lon="10.639365774870646"><ele>224.0</ele><time>2026-04-26T17:18:41.012Z</time></trkpt><trkpt lat="43.0877610775245" lon="10.63935286765078"><ele>224.0</ele><time>2026-04-26T17:18:47.012Z</time></trkpt><trkpt lat="43.08769438588294" lon="10.639327493858621"><ele>224.0</ele><time>2026-04-26T17:18:53.012Z</time></trkpt><trkpt lat="43.08763611361921" lon="10.63927507753668"><ele>224.0</ele><time>2026-04-26T17:19:00.012Z</time></trkpt><trkpt lat="43.08756486875034" lon="10.63926635197485"><ele>224.0</ele><time>2026-04-26T17:19:07.001Z</time></trkpt><trkpt lat="43.0875012040052" lon="10.639233123829644"><ele>224.0</ele><time>2026-04-26T17:19:14.001Z</time></trkpt><trkpt lat="43.087433850685954" lon="10.639200304025193"><ele>224.0</ele><time>2026-04-26T17:19:20.001Z</time></trkpt><trkpt lat="43.087362882114" lon="10.639190999382594"><ele>224.0</ele><time>2026-04-26T17:19:28.001Z</time></trkpt><trkpt lat="43.08729358953873" lon="10.639157645594919"><ele>224.0</ele><time>2026-04-26T17:19:35.002Z</time></trkpt><trkpt lat="43.087231340624" lon="10.639125928310758"><ele>224.0</ele><time>2026-04-26T17:19:42.002Z</time></trkpt><trkpt lat="43.087152630513096" lon="10.639111825015693"><ele>223.42857142857142</ele><time>2026-04-26T17:19:53.002Z</time></trkpt><trkpt lat="43.08708547679597" lon="10.639081320929543"><ele>222.85714285714286</ele><time>2026-04-26T17:20:01Z</time></trkpt><trkpt lat="43.08702254196682" lon="10.639067315634405"><ele>222.28571428571428</ele><time>2026-04-26T17:20:06.001Z</time></trkpt><trkpt lat="43.08695210201875" lon="10.639028672668234"><ele>221.71428571428572</ele><time>2026-04-26T17:20:12Z</time></trkpt><trkpt lat="43.08688838652852" lon="10.639018557515673"><ele>221.14285714285714</ele><time>2026-04-26T17:20:19Z</time></trkpt><trkpt lat="43.08682106849385" lon="10.639023669192182"><ele>220.57142857142856</ele><time>2026-04-26T17:20:27Z</time></trkpt><trkpt lat="43.086749425351066" lon="10.639014830483795"><ele>220.0</ele><time>2026-04-26T17:20:33Z</time></trkpt><trkpt lat="43.08668235728991" lon="10.638990873758456"><ele>219.99999999999997</ele><time>2026-04-26T17:20:38Z</time></trkpt><trkpt lat="43.08661630295095" lon="10.639006463157257"><ele>220.0</ele><time>2026-04-26T17:20:43Z</time></trkpt><trkpt lat="43.08654497888528" lon="10.639001563354302"><ele>220.0</ele><time>2026-04-26T17:20:49Z</time></trkpt><trkpt lat="43.08648772301903" lon="10.639042721088355"><ele>220.0</ele><time>2026-04-26T17:20:57Z</time></trkpt><trkpt lat="43.086421280887954" lon="10.63906813427752"><ele>220.0</ele><time>2026-04-26T17:21:03Z</time></trkpt><trkpt lat="43.08634903261119" lon="10.639099117387142"><ele>219.99999999999997</ele><time>2026-04-26T17:21:10Z</time></trkpt><trkpt lat="43.08627799078787" lon="10.639127118692198"><ele>220.0</ele><time>2026-04-26T17:21:18Z</time></trkpt><trkpt lat="43.08621799008519" lon="10.639095848126612"><ele>219.99999999999997</ele><time>2026-04-26T17:21:26.001Z</time></trkpt><trkpt lat="43.086211412158754" lon="10.639188722052065"><ele>220.0</ele><time>2026-04-26T17:22:04.001Z</time></trkpt><trkpt lat="43.08617363064123" lon="10.639280760779728"><ele>220.0</ele><time>2026-04-26T17:22:09Z</time></trkpt><trkpt lat="43.08612532169677" lon="10.639338506817115"><ele>220.0</ele><time>2026-04-26T17:22:13Z</time></trkpt><trkpt lat="43.08606962388005" lon="10.639385273092994"><ele>220.0</ele><time>2026-04-26T17:22:21Z</time></trkpt><trkpt lat="43.08603189774832" lon="10.639454427199508"><ele>219.99999999999997</ele><time>2026-04-26T17:22:28Z</time></trkpt><trkpt lat="43.08596639369716" lon="10.639494958889072"><ele>220.0</ele><time>2026-04-26T17:22:35Z</time></trkpt><trkpt lat="43.085919770562356" lon="10.639559321229912"><ele>219.99999999999997</ele><time>2026-04-26T17:22:41Z</time></trkpt><trkpt lat="43.08586766718475" lon="10.639610894615796"><ele>220.0</ele><time>2026-04-26T17:22:48Z</time></trkpt><trkpt lat="43.085809016027156" lon="10.639658680337169"><ele>220.0</ele><time>2026-04-26T17:22:56Z</time></trkpt><trkpt lat="43.085755283864636" lon="10.639711828084456"><ele>220.0</ele><time>2026-04-26T17:23:01Z</time></trkpt><trkpt lat="43.08568503306601" lon="10.63972864823652"><ele>220.0</ele><time>2026-04-26T17:23:07Z</time></trkpt><trkpt lat="43.085631223873364" lon="10.639778713221418"><ele>219.99999999999997</ele><time>2026-04-26T17:23:15.001Z</time></trkpt><trkpt lat="43.08556705920702" lon="10.639802208811032"><ele>220.0</ele><time>2026-04-26T17:23:25.001Z</time></trkpt><trkpt lat="43.08549615753207" lon="10.639840730259577"><ele>220.85714285714283</ele><time>2026-04-26T17:23:35.001Z</time></trkpt><trkpt lat="43.08542986296385" lon="10.639866622758065"><ele>221.71428571428572</ele><time>2026-04-26T17:23:45.001Z</time></trkpt><trkpt lat="43.085352619132614" lon="10.63987841704011"><ele>222.57142857142856</ele><time>2026-04-26T17:23:52.001Z</time></trkpt><trkpt lat="43.08528743729703" lon="10.639842464494638"><ele>223.42857142857142</ele><time>2026-04-26T17:24:00.001Z</time></trkpt><trkpt lat="43.08522341967306" lon="10.63983310379355"><ele>224.28571428571428</ele><time>2026-04-26T17:24:08.001Z</time></trkpt><trkpt lat="43.08515134895213" lon="10.639838725777436"><ele>225.14285714285714</ele><time>2026-04-26T17:24:15.001Z</time></trkpt><trkpt lat="43.08507784419794" lon="10.639812535984582"><ele>226.0</ele><time>2026-04-26T17:24:21Z</time></trkpt><trkpt lat="43.08501503342648" lon="10.639823604813058"><ele>226.0</ele><time>2026-04-26T17:24:26Z</time></trkpt><trkpt lat="43.08494881451572" lon="10.63979869794429"><ele>226.0</ele><time>2026-04-26T17:24:33Z</time></trkpt><trkpt lat="43.08488063007627" lon="10.639807152103696"><ele>226.0</ele><time>2026-04-26T17:24:38Z</time></trkpt><trkpt lat="43.084812221083" lon="10.639799973887746"><ele>226.0</ele><time>2026-04-26T17:24:45Z</time></trkpt><trkpt lat="43.08474696296656" lon="10.639801524104561"><ele>226.0</ele><time>2026-04-26T17:24:52.001Z</time></trkpt><trkpt lat="43.08468926417116" lon="10.63984466039181"><ele>226.0</ele><time>2026-04-26T17:25:30.001Z</time></trkpt><trkpt lat="43.08462659133063" lon="10.639876075294007"><ele>226.0</ele><time>2026-04-26T17:25:45.001Z</time></trkpt><trkpt lat="43.084644886197324" lon="10.639775352793114"><ele>225.66666666666666</ele><time>2026-04-26T17:26:34Z</time></trkpt><trkpt lat="43.08454085744594" lon="10.6397928846226"><ele>225.33333333333331</ele><time>2026-04-26T17:26:36Z</time></trkpt><trkpt lat="43.08447538490679" lon="10.639791944133265"><ele>225.0</ele><time>2026-04-26T17:26:38Z</time></trkpt><trkpt lat="43.084456022714605" lon="10.639709648815995"><ele>224.66666666666669</ele><time>2026-04-26T17:26:41Z</time></trkpt><trkpt lat="43.08439157447193" lon="10.639765956579863"><ele>224.33333333333334</ele><time>2026-04-26T17:26:44Z</time></trkpt><trkpt lat="43.08435283970841" lon="10.639651763396932"><ele>224.0</ele><time>2026-04-26T17:26:48Z</time></trkpt><trkpt lat="43.08427630606665" lon="10.639654303695492"><ele>224.00000000000003</ele><time>2026-04-26T17:26:52Z</time></trkpt><trkpt lat="43.08419571433006" lon="10.639637661551417"><ele>224.0</ele><time>2026-04-26T17:26:55Z</time></trkpt><trkpt lat="43.08411542777884" lon="10.639635663443565"><ele>224.0</ele><time>2026-04-26T17:26:57Z</time></trkpt><trkpt lat="43.08402970473372" lon="10.639660690912745"><ele>224.0</ele><time>2026-04-26T17:26:59Z</time></trkpt><trkpt lat="43.08397173973868" lon="10.639558894775195"><ele>224.00000000000003</ele><time>2026-04-26T17:27:02Z</time></trkpt><trkpt lat="43.08389849536149" lon="10.639524054499072"><ele>224.0</ele><time>2026-04-26T17:27:05Z</time></trkpt><trkpt lat="43.08383718459554" lon="10.639467545787"><ele>227.42857142857144</ele><time>2026-04-26T17:27:08Z</time></trkpt><trkpt lat="43.0837879246559" lon="10.639407151344576"><ele>230.85714285714286</ele><time>2026-04-26T17:27:11.001Z</time></trkpt><trkpt lat="43.08374323814162" lon="10.639344039358821"><ele>234.28571428571428</ele><time>2026-04-26T17:27:14.001Z</time></trkpt><trkpt lat="43.08369743352672" lon="10.639237731110242"><ele>237.71428571428572</ele><time>2026-04-26T17:27:18.001Z</time></trkpt><trkpt lat="43.08364936862183" lon="10.639161021332745"><ele>241.14285714285717</ele><time>2026-04-26T17:27:22.001Z</time></trkpt><trkpt lat="43.08357380438923" lon="10.639166566058572"><ele>244.57142857142858</ele><time>2026-04-26T17:27:26.001Z</time></trkpt><trkpt lat="43.08349726862053" lon="10.639160027949853"><ele>248.0</ele><time>2026-04-26T17:27:29.001Z</time></trkpt><trkpt lat="43.083460568874294" lon="10.639089400492212"><ele>248.00000000000003</ele><time>2026-04-26T17:27:33.001Z</time></trkpt><trkpt lat="43.08340202236541" lon="10.639031254855679"><ele>248.0</ele><time>2026-04-26T17:27:37.001Z</time></trkpt><trkpt lat="43.08333266527864" lon="10.639085624561378"><ele>248.0</ele><time>2026-04-26T17:27:40.001Z</time></trkpt><trkpt lat="43.083282611779275" lon="10.639148033042229"><ele>248.0</ele><time>2026-04-26T17:27:43.001Z</time></trkpt><trkpt lat="43.08323644301699" lon="10.639278622524584"><ele>248.00000000000003</ele><time>2026-04-26T17:27:47.001Z</time></trkpt><trkpt lat="43.08322921419684" lon="10.639370431492857"><ele>248.0</ele><time>2026-04-26T17:27:49.001Z</time></trkpt><trkpt lat="43.08318273959626" lon="10.63946478708252"><ele>281.0</ele><time>2026-04-26T17:27:52.001Z</time></trkpt><trkpt lat="43.08299244111104" lon="10.639551032165606"><ele>252.0</ele><time>2026-04-26T17:28:02.001Z</time></trkpt><trkpt lat="43.08298230060143" lon="10.639640146782481"><ele>252.0</ele><time>2026-04-26T17:28:06.001Z</time></trkpt><trkpt lat="43.08293056090072" lon="10.639713492908257"><ele>252.0</ele><time>2026-04-26T17:28:10.001Z</time></trkpt><trkpt lat="43.08287677802384" lon="10.639769490101736"><ele>252.0</ele><time>2026-04-26T17:28:15.001Z</time></trkpt></trkseg></trk></gpx>